Flight Track Log - Related Links

Times and Time Zones

All times are in EDT time to prevent confusion due to time zone crossing. See the CHQ4999 flight status page for this flight to view local times or setup timezone preferences in your user account.

Time Position Orientation Groundspeed Altitude Reporting Facility
EDT Latitude Longitude Course Direction KTS MPH feet Rate Location/Type
Fri 06:13:52 AM 42.3667 -70.9833 300° West 156 180 800  Level KA90
Fri 06:14:22 AM 42.3667 -70.9500 90° East 142 163 1,900 2,000 Climbing KA90
Fri 06:15:22 AM 42.3833 -70.8833 71° East 193 222 3,800 1,789 Climbing KA90
Fri 06:16:00 AM 42.5352 -70.8000 North  Level FlightAware Approximate
Fri 06:16:16 AM 42.3950 -70.8122 77° East 238 274 5,300  Level Boston Center
Fri 06:17:00 AM 42.6050 -70.8838 308° West  Level FlightAware Approximate
Fri 06:17:16 AM 42.4569 -70.7656 29° Northeast 231 266 7,500  Level Boston Center
Fri 06:18:00 AM 42.6590 -70.9947 300° West  Level FlightAware Approximate
Fri 06:18:16 AM 42.5242 -70.8089 335° Northwest 204 235 9,500  Level Boston Center
Fri 06:19:00 AM 42.7073 -71.1108 300° West  Level FlightAware Approximate
Fri 06:19:16 AM 42.5669 -70.8953 304° West 220 253 11,500  Level Boston Center
Fri 06:20:16 AM 42.6161 -70.9814 308° West 284 327 12,900 1,250 Climbing Boston Center
Fri 06:21:16 AM 42.6758 -71.0875 307° West 315 362 14,000 850 Climbing Boston Center
Fri 06:22:16 AM 42.7083 -71.1942 293° West 332 382 14,600 1,350 Climbing Boston Center
Fri 06:23:16 AM 42.7242 -71.3322 279° West 343 395 16,700 1,750 Climbing Boston Center
Fri 06:24:16 AM 42.7358 -71.4422 278° West 338 389 18,100 1,150 Climbing Boston Center
Fri 06:25:16 AM 42.7492 -71.5636 279° West 331 381 19,000 1,150 Climbing Boston Center
Fri 06:26:16 AM 42.7628 -71.6936 278° West 336 387 20,400 1,400 Climbing Boston Center
Fri 06:27:16 AM 42.7781 -71.8178 280° West 336 387 21,800 1,400 Climbing Boston Center
Fri 06:28:16 AM 42.7911 -71.9450 278° West 336 387 23,200 1,400 Climbing Boston Center
Fri 06:29:16 AM 42.8042 -72.0722 278° West 336 387 24,600 1,250 Climbing Boston Center
Fri 06:30:16 AM 42.8192 -72.1967 279° West 341 392 25,700 1,100 Climbing Boston Center
Fri 06:31:16 AM 42.8400 -72.3381 281° West 341 392 26,800 1,050 Climbing Boston Center
Fri 06:32:16 AM 42.8506 -72.4683 276° West 347 399 27,800 1,000 Climbing Boston Center
Fri 06:33:16 AM 42.8650 -72.5986 279° West 354 407 28,800 1,000 Climbing Boston Center
Fri 06:34:16 AM 42.8711 -72.7233 274° West 349 402 29,800 1,000 Climbing Boston Center
Fri 06:35:16 AM 42.8811 -72.8425 277° West 349 402 30,800 909 Climbing Boston Center
Fri 06:36:28 AM 42.8953 -72.9786 278° West 354 407 31,800 1,045 Climbing Boston Center
Fri 06:37:28 AM 42.9131 -73.1544 278° West 359 413 33,100 1,150 Climbing Boston Center
Fri 06:38:28 AM 42.9267 -73.2908 278° West 365 420 34,100 950 Climbing Boston Center
Fri 06:39:28 AM 42.9358 -73.4242 275° West 365 420 35,000 900 Climbing Boston Center
Fri 06:40:28 AM 42.9472 -73.5547 277° West 365 420 35,900 500 Climbing Boston Center
Fri 06:41:28 AM 42.9603 -73.6942 277° West 365 420 36,000 50 Climbing Boston Center
Fri 06:42:28 AM 42.9733 -73.8392 277° West 377 434 36,000  Level Boston Center
Fri 06:43:28 AM 42.9881 -73.9869 278° West 389 448 36,000  Level Boston Center
Fri 06:44:28 AM 43.0006 -74.1322 277° West 394 453 36,000  Level Boston Center
Fri 06:45:28 AM 43.0108 -74.2717 276° West 383 441 36,000  Level Boston Center
Fri 06:46:28 AM 43.0231 -74.4111 277° West 383 441 36,000  Level Boston Center
Fri 06:47:28 AM 43.0353 -74.5478 277° West 378 435 36,000  Level Boston Center
Fri 06:48:28 AM 43.0472 -74.6875 277° West 373 429 36,000  Level Boston Center
Fri 06:49:28 AM 43.0589 -74.8328 276° West 373 429 36,000  Level Boston Center
Fri 06:50:28 AM 43.0703 -74.9839 276° West 386 444 36,000  Level Boston Center
Fri 06:51:28 AM 43.0833 -75.1353 277° West 402 463 36,000 -650 Level Boston Center
Fri 06:52:28 AM 43.0922 -75.2833 275° West 402 463 34,700 -1,400 Descending Boston Center
Fri 06:53:28 AM 43.1036 -75.4092 277° West 397 457 33,200 -1,700 Descending Boston Center
Fri 06:54:28 AM 43.1128 -75.5406 276° West 377 434 31,300 -1,600 Descending Boston Center
Fri 06:55:28 AM 43.1239 -75.6606 277° West 344 396 30,000 -650 Descending Boston Center
Fri 06:56:28 AM 43.1331 -75.7806 276° West 332 382 30,000 -750 Level Boston Center
Fri 06:57:28 AM 43.1419 -75.9033 276° West 332 382 28,500 -1,491 Descending Boston Center
Fri 06:59:09 AM 43.1347 -76.1161 267° West 308 354 26,000 -932 Descending Cleveland Center
Fri 07:00:09 AM 43.1039 -76.2378 251° West 320 368 26,000  Level Cleveland Center
Fri 07:01:09 AM 43.0711 -76.3622 250° West 338 389 26,000  Level Cleveland Center
Fri 07:02:09 AM 43.0400 -76.4867 251° West 343 395 26,000  Level Cleveland Center
Fri 07:03:09 AM 43.0067 -76.6081 249° West 343 395 26,000  Level Cleveland Center
Fri 07:04:09 AM 42.9733 -76.7322 250° West 348 400 26,000  Level Cleveland Center
Fri 07:05:09 AM 42.9400 -76.8564 250° West 353 406 26,000  Level Cleveland Center
Fri 07:06:09 AM 42.9086 -76.9831 251° West 353 406 26,000  Level Cleveland Center
Fri 07:07:09 AM 42.8683 -77.1014 245° Southwest 358 412 26,000  Level Cleveland Center
Fri 07:08:09 AM 42.8178 -77.2233 241° Southwest 358 412 26,000 400 Level Cleveland Center
Fri 07:09:09 AM 42.7689 -77.3361 239° Southwest 363 418 26,800 950 Climbing Cleveland Center
Fri 07:10:09 AM 42.7200 -77.4517 240° Southwest 363 418 27,900 600 Climbing Cleveland Center
Fri 07:11:09 AM 42.6731 -77.5642 240° Southwest 358 412 28,000 50 Climbing Cleveland Center
Fri 07:12:09 AM 42.6236 -77.6767 239° Southwest 358 412 28,000  Level Cleveland Center
Fri 07:13:09 AM 42.5725 -77.7919 239° Southwest 358 412 28,000  Level Cleveland Center
Fri 07:14:09 AM 42.5289 -77.8953 240° Southwest 358 412 28,000  Level Cleveland Center
Fri 07:15:09 AM 42.4794 -78.0100 240° Southwest 358 412 28,000  Level Cleveland Center
Fri 07:16:09 AM 42.4300 -78.1244 240° Southwest 358 412 28,000  Level Cleveland Center
Fri 07:17:09 AM 42.3800 -78.2389 239° Southwest 363 418 28,000  Level Cleveland Center
Fri 07:18:09 AM 42.3283 -78.3531 239° Southwest 363 418 28,000  Level Cleveland Center
Fri 07:19:09 AM 42.2783 -78.4672 239° Southwest 363 418 28,000  Level Cleveland Center
Fri 07:20:09 AM 42.2281 -78.5811 239° Southwest 369 425 28,000  Level Cleveland Center
Fri 07:21:09 AM 42.1758 -78.6975 239° Southwest 369 425 28,000  Level Cleveland Center
Fri 07:22:09 AM 42.1444 -78.8161 250° West 358 412 28,000  Level Cleveland Center
Fri 07:23:09 AM 42.1131 -78.9403 251° West 347 399 28,000  Level Cleveland Center
Fri 07:24:09 AM 42.0814 -79.0669 251° West 352 405 28,000  Level Cleveland Center
Fri 07:25:09 AM 42.0494 -79.1878 250° West 352 405 28,000  Level Cleveland Center
Fri 07:26:09 AM 42.0175 -79.3114 251° West 352 405 28,000 -500 Level Cleveland Center
Fri 07:27:09 AM 41.9833 -79.4378 250° West 352 405 27,000 -1,250 Descending Cleveland Center
Fri 07:28:09 AM 41.9492 -79.5669 250° West 357 411 25,500 -1,550 Descending Cleveland Center
Fri 07:29:09 AM 41.9108 -79.7125 251° West 378 435 23,900 -1,750 Descending Cleveland Center
Fri 07:30:09 AM 41.8764 -79.8469 251° West 383 441 22,000 -1,900 Descending Cleveland Center
Fri 07:31:09 AM 41.8417 -79.9756 250° West 383 441 20,100 -1,000 Descending Cleveland Center
Fri 07:32:09 AM 41.8089 -80.1069 252° West 383 441 20,000 -50 Descending Cleveland Center
Fri 07:33:09 AM 41.7719 -80.2353 249° West 383 441 20,000 -650 Level Cleveland Center
Fri 07:34:09 AM 41.7347 -80.3689 250° West 383 441 18,700 -1,150 Descending Cleveland Center
Fri 07:35:09 AM 41.7036 -80.4858 250° West 383 441 17,700 -1,300 Descending Cleveland Center
Fri 07:36:09 AM 41.6703 -80.6053 250° West 356 410 16,100 -1,050 Descending Cleveland Center
Fri 07:37:09 AM 41.6389 -80.7192 250° West 345 397 15,600 -1,000 Descending Cleveland Center
Fri 07:38:09 AM 41.6053 -80.8414 250° West 346 398 14,100 -1,550 Descending Cleveland Center
Fri 07:39:09 AM 41.5736 -80.9550 250° West 346 398 12,500 -1,723 Descending Cleveland Center
Fri 07:39:43 AM 41.5547 -81.0242 250° West 320 368 11,400 -1,900 Descending Cleveland Center
Fri 07:40:09 AM 41.5442 -81.0658 251° West 335 386 10,600 -1,254 Descending Cleveland Center
Fri 07:40:50 AM 41.5375 -81.1572 264° West 303 349 10,000 -600 Descending Cleveland Center
Fri 07:41:09 AM 41.5331 -81.1767 253° West 310 357 10,000 -182 Level Cleveland Center
Fri 07:41:56 AM 41.5264 -81.2656 264° West 274 315 9,800 -800 Descending Cleveland Center
Fri 07:42:39 AM 41.5219 -81.3292 265° West 243 280 8,800 -1,397 Descending Cleveland Center
Fri 07:43:09 AM 41.5175 -81.3761 263° West 261 300 8,100 -1,574 Descending Cleveland Center
Fri 07:43:40 AM 41.5150 -81.4233 266° West 240 276 7,200 -1,500 Descending Cleveland Center
Fri 07:44:09 AM 41.5106 -81.4622 261° West 254 292 6,600 -1,444 Descending Cleveland Center
Fri 07:44:34 AM 41.5081 -81.4981 265° West 237 273 5,900 -1,600 Descending Cleveland Center
Fri 07:45:09 AM 41.4994 -81.5481 257° West 240 276 5,000 -1,522 Descending Cleveland Center
Fri 07:45:41 AM 41.4864 -81.5892 247° West 225 259 4,200 -1,000 Descending Cleveland Center
Fri 07:46:09 AM 41.4800 -81.6253 257° West 235 270 4,000 -436 Descending Cleveland Center
Fri 07:46:36 AM 41.4775 -81.6583 264° West 208 239 3,800 -444 Descending Cleveland Center

Login

Don't have an account? Register now (free) for customized features, flight alerts, and more!